Terminal Aerodrome Forecast
Issued by NWS Amarillo, TX

Home | Current Version | Previous Version | Text Only | Print | Product List | Glossary On
Versions: 1 2 3 4 5 6 7 8 9 10 11 12 13 14 15 16 17 18 19 20
000
FTUS44 KAMA 050520
TAFAMA
TAF
KAMA 050520Z 0506/0606 17010KT P6SM FEW300
     FM051200 24012KT P6SM SKC
     FM051600 29011KT P6SM SKC
     FM052000 36009KT P6SM SKC=

USA.gov is the U.S. government's official web portal to all federal, state and local government web resources and services.